createdAt,value
2022-12-25T00:00:20.487Z,96663.41
2022-12-25T00:03:17.938Z,96671.94
2022-12-25T00:06:16.024Z,96671.38
2022-12-25T00:09:12.858Z,96675.34
2022-12-25T00:12:09.646Z,96677.72
2022-12-25T00:15:06.950Z,96672.72
2022-12-25T00:18:03.821Z,96666.63
2022-12-25T00:21:05.329Z,96669.78
2022-12-25T00:24:03.425Z,96654.66
2022-12-25T00:27:00.300Z,96641.09
2022-12-25T00:29:57.119Z,96644.84
2022-12-25T00:32:54.018Z,96637.38
2022-12-25T00:35:59.186Z,96638.44
2022-12-25T00:38:56.091Z,96634.47
2022-12-25T00:42:11.268Z,96637.66
2022-12-25T00:45:08.568Z,96632.06
2022-12-25T00:48:05.658Z,96626.47
2022-12-25T00:51:06.957Z,96613.66
2022-12-25T00:54:03.895Z,96620.69
2022-12-25T00:57:00.734Z,96616.47
2022-12-25T00:59:57.544Z,96614.38
2022-12-25T01:02:54.526Z,96614.38
2022-12-25T01:06:03.886Z,96620.44
2022-12-25T01:09:19.064Z,96628.47
2022-12-25T01:12:15.856Z,96633.72
2022-12-25T01:15:13.306Z,96639.09
2022-12-25T01:18:12.868Z,96645.94
2022-12-25T01:21:12.381Z,96648.09
2022-12-25T01:24:09.195Z,96651.81
2022-12-25T01:27:06.007Z,96653.91
2022-12-25T01:30:02.881Z,96655.22
2022-12-25T01:32:59.732Z,96656.09
2022-12-25T01:35:57.801Z,96654.97
2022-12-25T01:38:54.931Z,96647.03
2022-12-25T01:41:51.816Z,96655.28
2022-12-25T01:44:51.139Z,96649.75
2022-12-25T01:47:48.165Z,96663.69
2022-12-25T01:50:52.257Z,96661.84
2022-12-25T01:53:49.079Z,96672.84
2022-12-25T01:56:49.116Z,96669.34
2022-12-25T01:59:46.773Z,96680.28
2022-12-25T02:02:45.162Z,96681.00
2022-12-25T02:05:42.398Z,96678.09
2022-12-25T02:08:40.796Z,96669.31
2022-12-25T02:11:56.362Z,96668.47
2022-12-25T02:15:03.073Z,96672.28
2022-12-25T02:18:15.687Z,96673.84
2022-12-25T02:21:23.178Z,96675.50
2022-12-25T02:24:41.671Z,96671.19
2022-12-25T02:27:58.764Z,96680.28
2022-12-25T02:31:32.766Z,96662.63
2022-12-25T02:34:50.289Z,96673.28
2022-12-25T02:38:04.680Z,96665.81
2022-12-25T02:41:13.049Z,96677.28
2022-12-25T02:44:37.985Z,96670.38
2022-12-25T02:48:09.544Z,96668.53
2022-12-25T02:51:31.018Z,96665.88
2022-12-25T02:54:54.965Z,96658.66
2022-12-25T02:58:14.718Z,96650.19
2022-12-25T03:01:40.944Z,96661.31
2022-12-25T03:04:57.872Z,96653.91
2022-12-25T03:07:58.746Z,96651.19
2022-12-25T03:11:23.310Z,96649.88
2022-12-25T03:14:38.933Z,96633.06
2022-12-25T03:17:36.286Z,96639.75
2022-12-25T03:20:53.677Z,96644.53
2022-12-25T03:24:16.240Z,96645.38
2022-12-25T03:27:13.052Z,96644.84
2022-12-25T03:30:29.437Z,96648.81
2022-12-25T03:34:17.556Z,96644.00
2022-12-25T03:38:15.292Z,96646.72
2022-12-25T03:42:03.637Z,96650.44
2022-12-25T03:45:27.345Z,96646.09
2022-12-25T03:48:44.627Z,96639.75
2022-12-25T03:52:02.997Z,96655.44
2022-12-25T03:55:24.599Z,96657.28
2022-12-25T03:58:44.185Z,96649.59
2022-12-25T04:02:00.032Z,96659.44
2022-12-25T04:05:15.762Z,96654.06
2022-12-25T04:08:31.123Z,96649.81
2022-12-25T04:11:46.463Z,96644.78
2022-12-25T04:15:01.945Z,96647.19
2022-12-25T04:18:17.292Z,96654.13
2022-12-25T04:21:32.819Z,96648.47
2022-12-25T04:24:48.148Z,96645.28
2022-12-25T04:28:03.614Z,96647.38
2022-12-25T04:31:20.164Z,96650.31
2022-12-25T04:34:36.345Z,96654.84
2022-12-25T04:37:33.169Z,96661.47
2022-12-25T04:40:29.974Z,96662.00
2022-12-25T04:43:27.161Z,96654.06
2022-12-25T04:46:23.993Z,96645.00
2022-12-25T04:49:20.961Z,96640.47
2022-12-25T04:52:17.783Z,96639.38
2022-12-25T04:55:14.606Z,96643.91
2022-12-25T04:58:11.800Z,96644.69
2022-12-25T05:01:08.748Z,96637.72
2022-12-25T05:04:05.760Z,96639.09
2022-12-25T05:07:02.555Z,96640.75
2022-12-25T05:09:59.381Z,96634.84
2022-12-25T05:12:56.246Z,96621.91
2022-12-25T05:15:53.557Z,96620.53
2022-12-25T05:18:51.904Z,96614.13
2022-12-25T05:21:48.823Z,96601.63
2022-12-25T05:24:45.682Z,96606.44
2022-12-25T05:27:42.512Z,96612.28
2022-12-25T05:30:39.454Z,96607.94
2022-12-25T05:33:36.458Z,96593.84
2022-12-25T05:36:33.262Z,96597.03
2022-12-25T05:39:30.181Z,96597.00
2022-12-25T05:42:27.123Z,96609.00
2022-12-25T05:45:23.934Z,96610.06
2022-12-25T05:48:20.896Z,96594.34
2022-12-25T05:51:17.808Z,96609.81
2022-12-25T05:54:14.641Z,96619.16
2022-12-25T05:57:11.961Z,96621.31
2022-12-25T06:00:09.733Z,96611.47
2022-12-25T06:03:06.889Z,96612.53
2022-12-25T06:06:04.348Z,96611.75
2022-12-25T06:09:01.212Z,96615.16
2022-12-25T06:11:58.117Z,96611.88
2022-12-25T06:14:55.032Z,96612.47
2022-12-25T06:17:51.873Z,96630.88
2022-12-25T06:20:48.934Z,96624.50
2022-12-25T06:23:50.713Z,96624.00
2022-12-25T06:26:47.932Z,96622.09
2022-12-25T06:29:44.794Z,96632.03
2022-12-25T06:32:41.600Z,96643.47
2022-12-25T06:35:40.274Z,96648.81
2022-12-25T06:38:37.623Z,96653.59
2022-12-25T06:41:34.473Z,96653.28
2022-12-25T06:44:31.459Z,96649.81
2022-12-25T06:47:28.344Z,96653.06
2022-12-25T06:50:25.306Z,96660.78
2022-12-25T06:53:22.436Z,96662.91
2022-12-25T06:56:24.210Z,96657.81
2022-12-25T06:59:21.401Z,96653.00
2022-12-25T07:02:22.071Z,96652.25
2022-12-25T07:05:18.978Z,96654.34
2022-12-25T07:08:15.820Z,96650.38
2022-12-25T07:11:12.655Z,96644.34
2022-12-25T07:14:23.814Z,96658.66
2022-12-25T07:17:22.369Z,96645.66
2022-12-25T07:20:19.196Z,96630.69
2022-12-25T07:23:16.045Z,96633.13
2022-12-25T07:26:13.663Z,96639.81
2022-12-25T07:29:10.499Z,96628.75
2022-12-25T07:32:07.475Z,96641.13
2022-12-25T07:35:04.738Z,96626.44
2022-12-25T07:38:01.565Z,96632.75
2022-12-25T07:40:58.424Z,96628.03
2022-12-25T07:43:55.887Z,96629.97
2022-12-25T07:46:52.714Z,96624.66
2022-12-25T07:49:49.538Z,96611.91
2022-12-25T07:52:47.022Z,96615.91
2022-12-25T07:55:43.892Z,96618.09
2022-12-25T07:58:41.617Z,96612.28
2022-12-25T08:01:38.611Z,96620.53
2022-12-25T08:04:35.596Z,96622.13
2022-12-25T08:07:32.597Z,96619.16
2022-12-25T08:10:29.778Z,96618.66
2022-12-25T08:13:26.838Z,96629.31
2022-12-25T08:16:24.321Z,96629.03
2022-12-25T08:19:21.438Z,96629.81
2022-12-25T08:22:18.243Z,96622.56
2022-12-25T08:25:15.935Z,96631.81
2022-12-25T08:28:12.848Z,96639.88
2022-12-25T08:31:18.532Z,96631.31
2022-12-25T08:34:15.890Z,96637.81
2022-12-25T08:37:12.734Z,96633.84
2022-12-25T08:40:10.211Z,96632.22
2022-12-25T08:43:07.163Z,96627.06
2022-12-25T08:46:04.747Z,96613.53
2022-12-25T08:49:01.664Z,96612.69
2022-12-25T08:51:58.580Z,96616.13
2022-12-25T08:54:55.482Z,96607.00
2022-12-25T08:57:54.275Z,96596.81
2022-12-25T09:00:51.222Z,96600.78
2022-12-25T09:03:48.275Z,96605.78
2022-12-25T09:06:45.200Z,96605.00
2022-12-25T09:09:43.544Z,96595.31
2022-12-25T09:12:40.403Z,96598.59
2022-12-25T09:15:39.193Z,96598.38
2022-12-25T09:18:36.278Z,96595.66
2022-12-25T09:21:33.123Z,96594.31
2022-12-25T09:24:30.001Z,96590.97
2022-12-25T09:27:27.035Z,96596.06
2022-12-25T09:30:23.893Z,96594.38
2022-12-25T09:33:22.184Z,96598.81
2022-12-25T09:36:21.279Z,96595.78
2022-12-25T09:39:18.205Z,96597.44
2022-12-25T09:42:25.175Z,96582.75
2022-12-25T09:45:35.830Z,96576.91
2022-12-25T09:48:35.612Z,96586.63
2022-12-25T09:51:36.538Z,96587.63
2022-12-25T09:54:59.833Z,96572.38
2022-12-25T09:58:08.703Z,96584.38
2022-12-25T10:01:23.117Z,96572.75
2022-12-25T10:04:40.784Z,96571.81
2022-12-25T10:08:05.260Z,96569.44
2022-12-25T10:11:37.517Z,96574.16
2022-12-25T10:14:52.617Z,96571.31
2022-12-25T10:18:44.666Z,96573.19
2022-12-25T10:21:42.014Z,96574.41
2022-12-25T10:24:55.825Z,96568.09
2022-12-25T10:28:02.709Z,96567.91
2022-12-25T10:31:18.021Z,96544.03
2022-12-25T10:34:16.034Z,96544.47
2022-12-25T10:37:13.199Z,96539.59
2022-12-25T10:40:24.873Z,96541.03
2022-12-25T10:43:32.907Z,96541.09
2022-12-25T10:46:29.980Z,96548.44
2022-12-25T10:49:38.518Z,96555.06
2022-12-25T10:52:35.818Z,96541.72
2022-12-25T10:55:33.316Z,96520.50
2022-12-25T10:58:31.833Z,96503.50
2022-12-25T11:01:28.920Z,96505.50
2022-12-25T11:04:28.788Z,96513.41
2022-12-25T11:07:27.158Z,96517.81
2022-12-25T11:10:38.952Z,96522.16
2022-12-25T11:13:47.537Z,96517.06
2022-12-25T11:16:44.521Z,96495.31
2022-12-25T11:19:56.723Z,96502.38
2022-12-25T11:22:53.631Z,96484.81
2022-12-25T11:26:18.159Z,96477.78
2022-12-25T11:29:50.557Z,96469.44
2022-12-25T11:32:55.578Z,96470.03
2022-12-25T11:35:55.574Z,96460.81
2022-12-25T11:38:52.688Z,96455.53
2022-12-25T11:41:53.573Z,96453.50
2022-12-25T11:45:05.131Z,96450.59
2022-12-25T11:48:07.950Z,96449.25
2022-12-25T11:51:07.155Z,96444.44
2022-12-25T11:54:22.727Z,96443.66
2022-12-25T11:57:19.863Z,96463.53
2022-12-25T12:00:17.575Z,96451.31
2022-12-25T12:03:28.663Z,96438.09
2022-12-25T12:06:53.164Z,96433.19
2022-12-25T12:10:19.510Z,96450.03
2022-12-25T12:13:34.516Z,96440.75
2022-12-25T12:16:31.706Z,96442.34
2022-12-25T12:19:31.583Z,96443.81
2022-12-25T12:22:28.927Z,96451.09
2022-12-25T12:25:26.852Z,96428.81
2022-12-25T12:28:29.491Z,96420.06
2022-12-25T12:31:45.485Z,96421.00
2022-12-25T12:34:49.642Z,96417.09
2022-12-25T12:37:53.642Z,96431.47
2022-12-25T12:41:04.609Z,96427.50
2022-12-25T12:44:05.007Z,96419.63
2022-12-25T12:47:02.340Z,96411.28
2022-12-25T12:50:01.119Z,96409.50
2022-12-25T12:52:58.334Z,96399.72
2022-12-25T12:55:55.669Z,96388.84
2022-12-25T12:58:52.537Z,96373.09
2022-12-25T13:02:35.149Z,96360.91
2022-12-25T13:05:48.081Z,96359.63
2022-12-25T13:09:09.399Z,96350.03
2022-12-25T13:12:08.950Z,96351.03
2022-12-25T13:15:13.859Z,96351.53
2022-12-25T13:18:13.484Z,96348.00
2022-12-25T13:21:20.450Z,96344.09
2022-12-25T13:24:23.575Z,96337.91
2022-12-25T13:27:27.263Z,96330.28
2022-12-25T13:30:25.322Z,96324.75
2022-12-25T13:33:22.540Z,96336.34
2022-12-25T13:36:19.532Z,96332.38
2022-12-25T13:39:17.607Z,96330.72
2022-12-25T13:42:23.077Z,96331.28
2022-12-25T13:45:25.990Z,96323.66
2022-12-25T13:48:24.091Z,96330.31
2022-12-25T13:51:21.015Z,96339.22
2022-12-25T13:54:19.224Z,96341.91
2022-12-25T13:57:18.040Z,96337.78
2022-12-25T14:00:35.630Z,96335.91
2022-12-25T14:03:42.669Z,96329.78
2022-12-25T14:06:39.514Z,96324.09
2022-12-25T14:09:36.806Z,96327.63
2022-12-25T14:12:34.176Z,96333.31
2022-12-25T14:15:34.944Z,96332.38
2022-12-25T14:18:32.560Z,96321.56
2022-12-25T14:21:41.763Z,96309.28
2022-12-25T14:24:40.136Z,96329.16
2022-12-25T14:27:37.319Z,96330.41
2022-12-25T14:30:35.778Z,96317.38
2022-12-25T14:33:38.426Z,96314.59
2022-12-25T14:36:35.378Z,96319.41
2022-12-25T14:39:38.305Z,96316.50
2022-12-25T14:42:35.520Z,96333.66
2022-12-25T14:45:38.768Z,96322.47
2022-12-25T14:48:35.647Z,96321.50
2022-12-25T14:51:35.313Z,96315.25
2022-12-25T14:54:32.233Z,96319.00
2022-12-25T14:57:37.400Z,96317.66
2022-12-25T15:00:38.268Z,96318.63
2022-12-25T15:03:38.197Z,96307.47
2022-12-25T15:06:35.661Z,96307.66
2022-12-25T15:09:33.162Z,96291.34
2022-12-25T15:12:30.402Z,96284.44
2022-12-25T15:15:28.115Z,96260.16
2022-12-25T15:18:30.637Z,96268.56
2022-12-25T15:21:31.706Z,96280.50
2022-12-25T15:24:28.616Z,96278.72
2022-12-25T15:27:25.468Z,96295.34
2022-12-25T15:30:22.548Z,96290.00
2022-12-25T15:33:19.744Z,96293.72
2022-12-25T15:36:16.692Z,96291.25
2022-12-25T15:39:13.640Z,96292.63
2022-12-25T15:42:23.606Z,96299.06
2022-12-25T15:45:24.390Z,96310.31
2022-12-25T15:48:21.160Z,96303.91
2022-12-25T15:51:18.190Z,96304.09
2022-12-25T15:54:15.030Z,96290.69
2022-12-25T15:57:30.664Z,96295.59
2022-12-25T16:00:27.701Z,96291.13
2022-12-25T16:03:24.614Z,96309.34
2022-12-25T16:06:21.453Z,96309.72
2022-12-25T16:09:22.456Z,96309.41
2022-12-25T16:12:19.837Z,96303.59
2022-12-25T16:15:16.934Z,96320.75
2022-12-25T16:18:14.286Z,96292.81
2022-12-25T16:21:19.092Z,96282.69
2022-12-25T16:24:16.319Z,96270.31
2022-12-25T16:27:13.157Z,96272.69
2022-12-25T16:30:12.871Z,96277.09
2022-12-25T16:33:14.063Z,96265.97
2022-12-25T16:36:10.900Z,96278.16
2022-12-25T16:39:07.831Z,96272.81
2022-12-25T16:42:04.803Z,96258.03
2022-12-25T16:45:02.155Z,96270.16
2022-12-25T16:47:59.211Z,96253.84
2022-12-25T16:50:56.045Z,96249.31
2022-12-25T16:53:53.545Z,96241.19
2022-12-25T16:56:51.747Z,96260.16
2022-12-25T16:59:48.807Z,96269.59
2022-12-25T17:02:46.072Z,96264.03
2022-12-25T17:05:43.179Z,96260.09
2022-12-25T17:08:42.258Z,96267.97
2022-12-25T17:11:42.405Z,96272.94
2022-12-25T17:14:39.273Z,96262.63
2022-12-25T17:17:37.349Z,96279.63
2022-12-25T17:20:36.147Z,96276.09
2022-12-25T17:23:33.167Z,96266.28
2022-12-25T17:26:31.026Z,96271.06
2022-12-25T17:29:28.141Z,96266.00
2022-12-25T17:32:25.128Z,96265.00
2022-12-25T17:35:23.430Z,96259.66
2022-12-25T17:38:22.609Z,96249.59
2022-12-25T17:41:20.798Z,96251.19
2022-12-25T17:44:18.942Z,96245.34
2022-12-25T17:47:17.663Z,96238.34
2022-12-25T17:50:14.578Z,96244.16
2022-12-25T17:53:11.768Z,96237.47
2022-12-25T17:56:15.589Z,96238.56
2022-12-25T17:59:18.112Z,96237.25
2022-12-25T18:02:15.376Z,96228.69
2022-12-25T18:05:12.287Z,96224.44
2022-12-25T18:08:09.376Z,96222.44
2022-12-25T18:11:10.461Z,96228.47
2022-12-25T18:14:09.662Z,96227.59
2022-12-25T18:17:06.498Z,96234.09
2022-12-25T18:20:07.302Z,96234.38
2022-12-25T18:23:04.165Z,96231.72
2022-12-25T18:26:07.117Z,96239.13
2022-12-25T18:29:04.814Z,96249.00
2022-12-25T18:32:01.719Z,96249.97
2022-12-25T18:35:05.529Z,96253.53
2022-12-25T18:38:05.876Z,96251.97
2022-12-25T18:41:06.807Z,96252.66
2022-12-25T18:44:03.682Z,96251.66
2022-12-25T18:47:00.628Z,96245.00
2022-12-25T18:49:57.522Z,96254.63
2022-12-25T18:52:54.335Z,96248.59
2022-12-25T18:55:51.255Z,96254.34
2022-12-25T18:58:51.479Z,96246.34
2022-12-25T19:01:48.470Z,96247.13
2022-12-25T19:04:45.738Z,96245.72
2022-12-25T19:07:43.134Z,96240.81
2022-12-25T19:10:41.010Z,96243.97
2022-12-25T19:13:37.947Z,96245.13
2022-12-25T19:16:35.542Z,96237.44
2022-12-25T19:19:32.669Z,96230.72
2022-12-25T19:22:29.516Z,96223.91
2022-12-25T19:25:26.361Z,96222.41
2022-12-25T19:28:25.001Z,96233.97
2022-12-25T19:31:23.083Z,96226.78
2022-12-25T19:34:19.938Z,96210.88
2022-12-25T19:37:16.804Z,96203.88
2022-12-25T19:40:13.681Z,96211.75
2022-12-25T19:43:10.583Z,96203.38
2022-12-25T19:46:14.656Z,96208.72
2022-12-25T19:49:14.755Z,96220.47
2022-12-25T19:52:13.308Z,96220.22
2022-12-25T19:55:10.183Z,96224.00
2022-12-25T19:58:06.999Z,96225.56
2022-12-25T20:01:11.798Z,96217.19
2022-12-25T20:04:09.880Z,96222.63
2022-12-25T20:07:06.706Z,96234.00
2022-12-25T20:10:03.645Z,96236.06
2022-12-25T20:13:00.488Z,96235.84
2022-12-25T20:16:01.393Z,96231.41
2022-12-25T20:18:59.299Z,96225.50
2022-12-25T20:21:56.157Z,96224.47
2022-12-25T20:24:52.993Z,96224.28
2022-12-25T20:27:49.815Z,96248.47
2022-12-25T20:30:46.630Z,96237.72
2022-12-25T20:33:44.142Z,96246.34
2022-12-25T20:36:40.993Z,96232.69
2022-12-25T20:39:38.625Z,96230.69
2022-12-25T20:42:35.809Z,96232.72
2022-12-25T20:45:32.669Z,96224.81
2022-12-25T20:48:29.537Z,96233.13
2022-12-25T20:51:27.200Z,96225.34
2022-12-25T20:54:24.222Z,96235.09
2022-12-25T20:57:21.030Z,96235.09
2022-12-25T21:00:17.924Z,96232.44
2022-12-25T21:03:14.773Z,96214.84
2022-12-25T21:06:12.864Z,96222.81
2022-12-25T21:09:09.710Z,96230.84
2022-12-25T21:12:07.448Z,96241.44
2022-12-25T21:15:08.915Z,96239.84
2022-12-25T21:18:08.559Z,96244.19
2022-12-25T21:21:07.479Z,96241.03
2022-12-25T21:24:04.745Z,96226.41
2022-12-25T21:27:01.549Z,96199.13
2022-12-25T21:29:58.387Z,96205.06
2022-12-25T21:33:17.048Z,96219.13
2022-12-25T21:36:14.191Z,96214.06
2022-12-25T21:39:11.843Z,96208.44
2022-12-25T21:42:08.652Z,96234.91
2022-12-25T21:45:05.911Z,96229.38
2022-12-25T21:48:03.675Z,96239.06
2022-12-25T21:51:24.790Z,96228.69
2022-12-25T21:54:22.450Z,96243.22
2022-12-25T21:57:20.436Z,96259.13
2022-12-25T22:00:17.319Z,96249.81
2022-12-25T22:03:14.181Z,96252.69
2022-12-25T22:06:30.748Z,96241.53
2022-12-25T22:09:27.632Z,96240.94
2022-12-25T22:12:43.311Z,96239.84
2022-12-25T22:15:58.855Z,96239.72
2022-12-25T22:19:14.075Z,96234.88
2022-12-25T22:22:11.812Z,96228.47
2022-12-25T22:25:10.760Z,96232.16
2022-12-25T22:28:08.467Z,96231.16
2022-12-25T22:31:06.473Z,96235.00
2022-12-25T22:34:03.347Z,96240.81
2022-12-25T22:37:00.548Z,96245.34
2022-12-25T22:39:57.913Z,96257.97
2022-12-25T22:42:56.543Z,96259.78
2022-12-25T22:45:53.422Z,96264.19
2022-12-25T22:48:50.286Z,96268.50
2022-12-25T22:51:48.877Z,96279.00
2022-12-25T22:54:45.700Z,96284.22
2022-12-25T22:57:42.507Z,96286.03
2022-12-25T23:00:46.481Z,96279.63
2022-12-25T23:03:43.576Z,96277.84
2022-12-25T23:06:40.615Z,96264.94
2022-12-25T23:09:37.460Z,96270.56
2022-12-25T23:13:06.723Z,96276.91
2022-12-25T23:16:04.869Z,96272.63
2022-12-25T23:19:20.303Z,96275.03
2022-12-25T23:22:35.442Z,96276.91
2022-12-25T23:25:52.486Z,96270.56
2022-12-25T23:29:07.676Z,96291.72
2022-12-25T23:32:13.772Z,96281.66
2022-12-25T23:35:11.811Z,96273.25
2022-12-25T23:38:08.648Z,96280.59
2022-12-25T23:41:05.543Z,96281.94
2022-12-25T23:44:02.363Z,96284.91
2022-12-25T23:46:59.426Z,96275.81
2022-12-25T23:49:56.308Z,96274.31
2022-12-25T23:52:53.127Z,96283.22
2022-12-25T23:55:55.558Z,96286.97
2022-12-25T23:58:52.829Z,96288.63
